createdAt,value
2024-02-29T00:00:27.466Z,18.95
2024-02-29T00:03:34.389Z,19.30
2024-02-29T00:06:40.845Z,19.32
2024-02-29T00:09:50.281Z,21.98
2024-02-29T00:12:56.572Z,22.66
2024-02-29T00:16:03.918Z,21.48
2024-02-29T00:19:09.961Z,20.50
2024-02-29T00:22:16.583Z,21.46
2024-02-29T00:25:25.742Z,22.27
2024-02-29T00:28:32.259Z,22.67
2024-02-29T00:31:38.279Z,21.60
2024-02-29T00:34:45.144Z,21.22
2024-02-29T00:37:51.102Z,21.68
2024-02-29T00:41:00.422Z,23.28
2024-02-29T00:44:06.687Z,22.53
2024-02-29T00:47:15.263Z,23.33
2024-02-29T00:50:21.403Z,23.86
2024-02-29T00:53:28.189Z,24.10
2024-02-29T00:56:36.929Z,25.79
2024-02-29T00:59:44.173Z,25.10
2024-02-29T01:02:50.157Z,24.61
2024-02-29T01:05:57.115Z,23.65
2024-02-29T01:09:03.129Z,23.95
2024-02-29T01:12:12.797Z,24.19
2024-02-29T01:15:20.918Z,23.72
2024-02-29T01:18:27.744Z,23.06
2024-02-29T01:21:33.845Z,23.78
2024-02-29T01:24:40.916Z,24.13
2024-02-29T01:27:49.602Z,26.21
2024-02-29T01:30:56.397Z,24.36
2024-02-29T01:34:02.575Z,23.81
2024-02-29T01:37:09.430Z,25.58
2024-02-29T01:40:19.592Z,24.31
2024-02-29T01:43:30.746Z,24.41
2024-02-29T01:46:36.771Z,23.76
2024-02-29T01:49:44.291Z,23.19
2024-02-29T01:52:50.984Z,23.46
2024-02-29T01:55:58.032Z,24.27
2024-02-29T01:59:08.989Z,24.03
2024-02-29T02:02:16.037Z,24.40
2024-02-29T02:05:22.126Z,23.97
2024-02-29T02:08:31.666Z,23.94
2024-02-29T02:11:37.712Z,24.45
2024-02-29T02:14:47.779Z,24.07
2024-02-29T02:17:53.907Z,24.59
2024-02-29T02:21:03.471Z,25.11
2024-02-29T02:24:09.954Z,25.30
2024-02-29T02:27:16.720Z,24.63
2024-02-29T02:30:22.769Z,25.39
2024-02-29T02:33:29.678Z,24.72
2024-02-29T02:36:38.367Z,25.15
2024-02-29T02:39:45.427Z,26.47
2024-02-29T02:42:51.492Z,27.28
2024-02-29T02:45:58.981Z,25.05
2024-02-29T02:49:05.624Z,25.52
2024-02-29T02:52:15.138Z,27.60
2024-02-29T02:55:21.581Z,29.69
2024-02-29T02:58:28.421Z,31.21
2024-02-29T03:01:35.023Z,31.29
2024-02-29T03:04:41.786Z,29.78
2024-02-29T03:07:50.896Z,29.11
2024-02-29T03:10:58.037Z,30.43
2024-02-29T03:14:04.110Z,30.43
2024-02-29T03:17:10.938Z,30.72
2024-02-29T03:20:17.020Z,30.35
2024-02-29T03:23:26.533Z,31.55
2024-02-29T03:26:32.602Z,30.40
2024-02-29T03:29:39.457Z,31.04
2024-02-29T03:32:45.547Z,31.49
2024-02-29T03:35:52.637Z,32.11
2024-02-29T03:39:01.475Z,31.78
2024-02-29T03:42:08.363Z,32.32
2024-02-29T03:45:14.454Z,33.02
2024-02-29T03:48:21.451Z,31.46
2024-02-29T03:51:27.568Z,32.59
2024-02-29T03:54:37.015Z,32.51
2024-02-29T03:57:43.048Z,33.66
2024-02-29T04:00:50.332Z,32.47
2024-02-29T04:03:56.495Z,32.14
2024-02-29T04:07:03.284Z,32.22
2024-02-29T04:10:13.352Z,32.27
2024-02-29T04:13:21.926Z,32.40
2024-02-29T04:16:28.024Z,32.43
2024-02-29T04:19:34.846Z,32.11
2024-02-29T04:22:40.978Z,31.42
2024-02-29T04:25:50.644Z,31.32
2024-02-29T04:28:56.861Z,31.33
2024-02-29T04:32:08.462Z,30.78
2024-02-29T04:35:14.795Z,31.28
2024-02-29T04:38:21.803Z,30.71
2024-02-29T04:41:30.462Z,30.87
2024-02-29T04:44:37.268Z,30.45
2024-02-29T04:47:44.246Z,29.85
2024-02-29T04:50:51.231Z,30.91
2024-02-29T04:53:57.285Z,30.81
2024-02-29T04:57:06.656Z,30.67
2024-02-29T05:00:14.642Z,29.25
2024-02-29T05:03:22.501Z,29.13
2024-02-29T05:06:29.366Z,27.42
2024-02-29T05:09:36.533Z,26.58
2024-02-29T05:12:50.156Z,25.93
2024-02-29T05:15:56.990Z,25.38
2024-02-29T05:19:03.243Z,25.65
2024-02-29T05:22:10.167Z,25.31
2024-02-29T05:25:16.344Z,25.37
2024-02-29T05:28:25.730Z,25.98
2024-02-29T05:31:32.432Z,25.75
2024-02-29T05:34:39.204Z,25.58
2024-02-29T05:37:45.710Z,25.17
2024-02-29T05:40:52.582Z,25.16
2024-02-29T05:44:01.590Z,24.68
2024-02-29T05:47:09.359Z,24.99
2024-02-29T05:50:15.836Z,24.92
2024-02-29T05:53:22.623Z,26.36
2024-02-29T05:56:28.819Z,26.49
2024-02-29T05:59:38.221Z,27.41
2024-02-29T06:02:44.847Z,26.17
2024-02-29T06:05:51.594Z,27.75
2024-02-29T06:08:57.580Z,28.98
2024-02-29T06:12:04.658Z,28.99
2024-02-29T06:15:14.245Z,30.17
2024-02-29T06:18:21.020Z,29.29
2024-02-29T06:21:27.551Z,28.33
2024-02-29T06:24:34.401Z,26.40
2024-02-29T06:27:41.108Z,25.85
2024-02-29T06:30:51.049Z,27.22
2024-02-29T06:33:57.331Z,29.77
2024-02-29T06:37:04.202Z,30.84
2024-02-29T06:40:14.772Z,30.32
2024-02-29T06:43:21.628Z,30.62
2024-02-29T06:46:30.366Z,29.99
2024-02-29T06:49:37.110Z,33.37
2024-02-29T06:52:43.695Z,34.33
2024-02-29T06:55:50.493Z,36.23
2024-02-29T06:58:56.465Z,37.94
2024-02-29T07:02:06.344Z,37.91
2024-02-29T07:05:12.860Z,36.74
2024-02-29T07:08:19.692Z,37.06
2024-02-29T07:11:27.507Z,34.79
2024-02-29T07:14:34.819Z,33.78
2024-02-29T07:17:43.551Z,33.33
2024-02-29T07:20:50.583Z,33.56
2024-02-29T07:23:56.598Z,33.11
2024-02-29T07:27:04.052Z,32.95
2024-02-29T07:30:12.736Z,31.85
2024-02-29T07:33:22.670Z,33.00
2024-02-29T07:36:30.080Z,35.17
2024-02-29T07:39:36.917Z,33.86
2024-02-29T07:42:43.327Z,33.70
2024-02-29T07:45:50.307Z,34.13
2024-02-29T07:48:58.977Z,34.57
2024-02-29T07:52:06.117Z,34.14
2024-02-29T07:55:15.994Z,35.26
2024-02-29T07:58:22.873Z,34.98
2024-02-29T08:01:28.947Z,34.14
2024-02-29T08:04:38.471Z,32.74
2024-02-29T08:07:48.084Z,30.56
2024-02-29T08:10:54.885Z,32.15
2024-02-29T08:14:00.944Z,31.88
2024-02-29T08:17:08.261Z,34.11
2024-02-29T08:20:21.652Z,34.63
2024-02-29T08:23:28.747Z,35.12
2024-02-29T08:26:34.926Z,34.84
2024-02-29T08:29:41.776Z,36.37
2024-02-29T08:32:50.071Z,34.07
2024-02-29T08:35:59.511Z,34.70
2024-02-29T08:39:06.020Z,33.30
2024-02-29T08:42:12.821Z,33.86
2024-02-29T08:45:20.530Z,33.73
2024-02-29T08:48:28.609Z,33.55
2024-02-29T08:51:37.443Z,33.29
2024-02-29T08:54:43.840Z,34.56
2024-02-29T08:57:49.410Z,34.72
2024-02-29T09:00:55.999Z,33.34
2024-02-29T09:04:03.269Z,33.11
2024-02-29T09:07:12.154Z,33.16
2024-02-29T09:10:18.249Z,32.96
2024-02-29T09:13:30.550Z,31.86
2024-02-29T09:16:40.755Z,32.13
2024-02-29T09:19:47.685Z,31.17
2024-02-29T09:22:56.111Z,31.46
2024-02-29T09:26:04.186Z,31.37
2024-02-29T09:29:09.674Z,30.81
2024-02-29T09:32:15.910Z,30.97
2024-02-29T09:35:21.399Z,30.43
2024-02-29T09:38:30.476Z,30.13
2024-02-29T09:41:58.819Z,29.56
2024-02-29T09:45:02.401Z,29.06
2024-02-29T09:48:11.124Z,28.09
2024-02-29T09:51:24.389Z,27.45
2024-02-29T09:54:38.139Z,27.82
2024-02-29T09:57:45.074Z,27.15
2024-02-29T10:00:51.851Z,27.62
2024-02-29T10:03:59.972Z,27.48
2024-02-29T10:07:05.564Z,27.29
2024-02-29T10:10:18.075Z,27.07
2024-02-29T10:13:23.721Z,25.92
2024-02-29T10:16:30.126Z,26.23
2024-02-29T10:19:38.937Z,25.94
2024-02-29T10:22:49.126Z,25.26
2024-02-29T10:25:59.133Z,25.35
2024-02-29T10:29:07.373Z,24.53
2024-02-29T10:32:13.543Z,24.04
2024-02-29T10:35:24.635Z,23.71
2024-02-29T10:38:30.151Z,23.72
2024-02-29T10:41:42.600Z,24.00
2024-02-29T10:44:51.882Z,23.86
2024-02-29T10:48:12.206Z,23.83
2024-02-29T10:51:31.020Z,22.61
2024-02-29T10:54:56.913Z,22.69
2024-02-29T10:58:16.492Z,22.25
2024-02-29T11:01:23.169Z,22.49
2024-02-29T11:04:29.303Z,23.14
2024-02-29T11:07:36.788Z,22.87
2024-02-29T11:10:42.465Z,22.51
2024-02-29T11:13:51.298Z,22.17
2024-02-29T11:16:59.724Z,22.27
2024-02-29T11:20:10.619Z,22.62
2024-02-29T11:23:17.391Z,23.29
2024-02-29T11:26:33.211Z,21.99
2024-02-29T11:29:41.460Z,22.15
2024-02-29T11:32:47.703Z,22.86
2024-02-29T11:35:55.956Z,22.39
2024-02-29T11:39:03.158Z,23.01
2024-02-29T11:42:09.652Z,22.73
2024-02-29T11:45:25.607Z,24.50
2024-02-29T11:48:31.286Z,22.68
2024-02-29T11:51:37.763Z,23.04
2024-02-29T11:54:43.732Z,23.67
2024-02-29T11:57:50.558Z,24.94
2024-02-29T12:00:58.698Z,22.83
2024-02-29T12:04:06.220Z,21.99
2024-02-29T12:07:12.197Z,22.54
2024-02-29T12:10:19.682Z,22.23
2024-02-29T12:13:25.879Z,22.00
2024-02-29T12:16:34.886Z,21.60
2024-02-29T12:19:43.241Z,22.15
2024-02-29T12:22:50.771Z,21.60
2024-02-29T12:25:56.525Z,21.54
2024-02-29T12:29:03.642Z,20.88
2024-02-29T12:32:13.755Z,20.76
2024-02-29T12:35:21.537Z,20.98
2024-02-29T12:38:28.743Z,21.31
2024-02-29T12:41:35.429Z,20.40
2024-02-29T12:44:41.526Z,20.21
2024-02-29T12:47:50.392Z,20.80
2024-02-29T12:50:56.066Z,21.57
2024-02-29T12:54:02.307Z,21.08
2024-02-29T12:57:11.440Z,22.24
2024-02-29T13:00:25.412Z,21.05
2024-02-29T13:03:33.711Z,20.24
2024-02-29T13:06:40.456Z,20.63
2024-02-29T13:09:47.092Z,20.44
2024-02-29T13:13:00.195Z,21.96
2024-02-29T13:16:11.791Z,21.82
2024-02-29T13:19:20.754Z,21.97
2024-02-29T13:22:26.484Z,20.68
2024-02-29T13:25:33.021Z,21.31
2024-02-29T13:28:39.880Z,21.44
2024-02-29T13:31:46.260Z,21.51
2024-02-29T13:34:55.059Z,20.99
2024-02-29T13:38:04.248Z,20.99
2024-02-29T13:41:11.039Z,21.31
2024-02-29T13:44:17.357Z,21.68
2024-02-29T13:47:22.890Z,21.73
2024-02-29T13:50:31.810Z,21.03
2024-02-29T13:53:37.844Z,21.63
2024-02-29T13:56:44.274Z,22.42
2024-02-29T13:59:50.800Z,21.98
2024-02-29T14:02:57.039Z,21.27
2024-02-29T14:06:05.794Z,22.48
2024-02-29T14:09:12.804Z,21.80
2024-02-29T14:12:18.471Z,22.78
2024-02-29T14:15:24.799Z,21.84
2024-02-29T14:18:31.501Z,22.26
2024-02-29T14:21:40.415Z,22.32
2024-02-29T14:24:49.192Z,21.84
2024-02-29T14:27:56.882Z,23.65
2024-02-29T14:31:02.464Z,23.29
2024-02-29T14:34:10.333Z,23.32
2024-02-29T14:37:19.192Z,23.76
2024-02-29T14:40:26.070Z,24.23
2024-02-29T14:43:31.690Z,24.69
2024-02-29T14:46:38.802Z,23.78
2024-02-29T14:49:44.525Z,23.88
2024-02-29T14:52:53.420Z,23.77
2024-02-29T14:55:59.216Z,24.08
2024-02-29T14:59:05.647Z,25.00
2024-02-29T15:02:12.804Z,25.04
2024-02-29T15:05:19.263Z,25.30
2024-02-29T15:08:27.680Z,25.07
2024-02-29T15:11:34.154Z,24.84
2024-02-29T15:14:40.374Z,24.72
2024-02-29T15:17:47.126Z,24.71
2024-02-29T15:20:53.331Z,24.49
2024-02-29T15:24:06.056Z,26.73
2024-02-29T15:27:11.982Z,27.47
2024-02-29T15:30:18.682Z,26.79
2024-02-29T15:33:24.318Z,26.58
2024-02-29T15:36:30.587Z,26.99
2024-02-29T15:39:38.840Z,26.84
2024-02-29T15:42:45.107Z,27.27
2024-02-29T15:45:50.794Z,28.14
2024-02-29T15:48:57.637Z,27.80
2024-02-29T15:52:04.323Z,28.75
2024-02-29T15:55:13.465Z,29.56
2024-02-29T15:58:19.356Z,28.98
2024-02-29T16:01:26.065Z,28.63
2024-02-29T16:04:32.142Z,35.31
2024-02-29T16:07:38.537Z,31.05
2024-02-29T16:10:48.336Z,29.34
2024-02-29T16:13:56.706Z,30.84
2024-02-29T16:17:03.385Z,33.22
2024-02-29T16:20:11.640Z,31.27
2024-02-29T16:23:18.775Z,32.86
2024-02-29T16:26:27.934Z,34.03
2024-02-29T16:29:33.601Z,37.78
2024-02-29T16:32:41.481Z,42.14
2024-02-29T16:35:48.327Z,39.27
2024-02-29T16:38:54.661Z,38.12
2024-02-29T16:42:02.829Z,36.51
2024-02-29T16:45:10.825Z,37.06
2024-02-29T16:48:16.521Z,35.97
2024-02-29T16:51:22.923Z,37.04
2024-02-29T16:54:28.552Z,37.13
2024-02-29T16:57:37.837Z,36.34
2024-02-29T17:00:43.372Z,38.67
2024-02-29T17:03:49.724Z,37.86
2024-02-29T17:06:55.563Z,38.31
2024-02-29T17:10:03.000Z,38.61
2024-02-29T17:13:11.426Z,39.14
2024-02-29T17:16:18.158Z,45.67
2024-02-29T17:19:23.878Z,44.56
2024-02-29T17:22:30.916Z,45.96
2024-02-29T17:25:36.617Z,48.13
2024-02-29T17:28:45.479Z,61.79
2024-02-29T17:31:51.010Z,65.49
2024-02-29T17:34:57.444Z,53.77
2024-02-29T17:38:03.956Z,61.12
2024-02-29T17:41:10.253Z,47.69
2024-02-29T17:44:20.837Z,45.68
2024-02-29T17:47:27.271Z,47.49
2024-02-29T17:50:32.954Z,46.04
2024-02-29T17:53:39.203Z,45.47
2024-02-29T17:56:47.761Z,45.47
2024-02-29T17:59:59.114Z,48.82
2024-02-29T18:03:04.650Z,47.49
2024-02-29T18:06:12.309Z,46.33
2024-02-29T18:09:18.169Z,46.24
2024-02-29T18:12:24.498Z,46.47
2024-02-29T18:15:32.613Z,47.72
2024-02-29T18:18:39.328Z,49.42
2024-02-29T18:21:47.087Z,50.66
2024-02-29T18:24:54.572Z,46.98
2024-02-29T18:28:00.190Z,47.58
2024-02-29T18:31:09.272Z,52.85
2024-02-29T18:34:14.969Z,48.80
2024-02-29T18:37:21.319Z,47.71
2024-02-29T18:40:27.179Z,48.61
2024-02-29T18:43:33.581Z,48.89
2024-02-29T18:46:43.801Z,49.09
2024-02-29T18:49:50.319Z,49.67
2024-02-29T18:52:56.037Z,52.46
2024-02-29T18:56:02.298Z,50.29
2024-02-29T18:59:07.949Z,52.68
2024-02-29T19:02:17.009Z,52.11
2024-02-29T19:05:22.844Z,48.90
2024-02-29T19:08:29.374Z,50.18
2024-02-29T19:11:34.932Z,52.20
2024-02-29T19:14:41.345Z,51.88
2024-02-29T19:17:49.550Z,52.23
2024-02-29T19:20:55.851Z,53.72
2024-02-29T19:24:01.364Z,51.79
2024-02-29T19:27:10.081Z,52.05
2024-02-29T19:30:18.916Z,53.96
2024-02-29T19:33:28.396Z,54.25
2024-02-29T19:36:34.278Z,58.44
2024-02-29T19:39:44.353Z,56.81
2024-02-29T19:42:50.126Z,57.46
2024-02-29T19:45:56.484Z,53.62
2024-02-29T19:49:04.641Z,54.33
2024-02-29T19:52:11.084Z,55.02
2024-02-29T19:55:16.597Z,53.37
2024-02-29T19:58:22.917Z,53.57
2024-02-29T20:01:28.611Z,54.06
2024-02-29T20:04:37.786Z,52.45
2024-02-29T20:07:44.054Z,52.30
2024-02-29T20:10:50.575Z,52.20
2024-02-29T20:13:56.227Z,51.02
2024-02-29T20:17:04.866Z,51.18
2024-02-29T20:20:15.370Z,51.84
2024-02-29T20:23:22.457Z,53.49
2024-02-29T20:26:28.723Z,53.58
2024-02-29T20:29:35.010Z,52.07
2024-02-29T20:32:41.740Z,52.87
2024-02-29T20:35:50.572Z,53.48
2024-02-29T20:38:56.081Z,53.66
2024-02-29T20:42:02.431Z,54.05
2024-02-29T20:45:09.235Z,53.45
2024-02-29T20:48:18.131Z,53.52
2024-02-29T20:51:26.429Z,53.98
2024-02-29T20:54:32.890Z,55.13
2024-02-29T20:57:39.965Z,54.76
2024-02-29T21:00:46.531Z,55.44
2024-02-29T21:03:52.780Z,55.62
2024-02-29T21:07:01.913Z,56.28
2024-02-29T21:10:08.753Z,57.44
2024-02-29T21:13:15.191Z,57.23
2024-02-29T21:16:20.863Z,57.37
2024-02-29T21:19:27.467Z,57.25
2024-02-29T21:22:36.442Z,58.50
2024-02-29T21:25:42.714Z,57.92
2024-02-29T21:28:50.705Z,58.00
2024-02-29T21:31:57.025Z,57.56
2024-02-29T21:35:02.599Z,58.18
2024-02-29T21:38:11.557Z,57.71
2024-02-29T21:41:17.466Z,59.04
2024-02-29T21:44:26.086Z,58.10
2024-02-29T21:47:31.677Z,58.86
2024-02-29T21:50:38.245Z,57.33
2024-02-29T21:53:46.488Z,57.90
2024-02-29T21:56:54.348Z,56.72
2024-02-29T21:59:59.829Z,58.37
2024-02-29T22:03:06.668Z,59.03
2024-02-29T22:06:15.103Z,58.42
2024-02-29T22:09:25.141Z,59.46
2024-02-29T22:12:30.733Z,58.60
2024-02-29T22:15:37.059Z,60.51
2024-02-29T22:18:42.612Z,60.45
2024-02-29T22:21:48.997Z,58.10
2024-02-29T22:24:57.377Z,58.97
2024-02-29T22:28:03.668Z,58.05
2024-02-29T22:31:09.187Z,58.71
2024-02-29T22:34:15.564Z,59.02
2024-02-29T22:37:21.567Z,59.91
2024-02-29T22:40:30.684Z,59.52
2024-02-29T22:43:36.477Z,60.27
2024-02-29T22:46:42.711Z,59.66
2024-02-29T22:49:48.168Z,60.54
2024-02-29T22:52:57.543Z,61.01
2024-02-29T22:56:05.657Z,61.49
2024-02-29T22:59:11.988Z,61.54
2024-02-29T23:02:17.525Z,61.49
2024-02-29T23:05:23.755Z,61.88
2024-02-29T23:08:30.996Z,60.16
2024-02-29T23:11:42.012Z,60.71
2024-02-29T23:14:51.076Z,61.52
2024-02-29T23:17:57.349Z,62.55
2024-02-29T23:21:03.064Z,62.50
2024-02-29T23:24:11.204Z,63.42
2024-02-29T23:27:19.294Z,63.57
2024-02-29T23:30:26.068Z,62.59
2024-02-29T23:33:32.149Z,63.39
2024-02-29T23:36:38.481Z,65.52
2024-02-29T23:39:44.033Z,65.47
2024-02-29T23:42:53.028Z,64.11
2024-02-29T23:45:59.087Z,64.05
2024-02-29T23:49:05.511Z,63.19
2024-02-29T23:52:11.235Z,62.68
2024-02-29T23:55:17.762Z,62.78
2024-02-29T23:58:25.952Z,62.84
